Time;durP1;ratioP1;P1;durP2;ratioP2;P2;SDS_P1;SDS_P2;PMS_P1;PMS_P2;Temp;Humidity;BMP_temperature;BMP_pressure;BME280_temperature;BME280_humidity;BME280_pressure;Samples;Min_cycle;Max_cycle;Signal;HPM_P1;HPM_P2
2023/11/06 00:00:38;;;;;;;2.97;1.90;;;10.50;1.00;;;;;;5129464;27;20479;-69
2023/11/06 00:03:05;;;;;;;4.00;2.10;;;10.70;1.00;;;;;;5145806;27;20467;-70
2023/11/06 00:05:36;;;;;;;3.10;2.23;;;10.70;1.00;;;;;;5150046;27;20461;-70
2023/11/06 00:08:02;;;;;;;2.60;2.10;;;10.70;1.00;;;;;;5123788;27;20453;-71
2023/11/06 00:10:29;;;;;;;2.20;2.03;;;10.70;1.00;;;;;;5128917;27;20903;-70
2023/11/06 00:12:56;;;;;;;2.90;1.80;;;10.70;1.00;;;;;;5126830;27;20464;-68
2023/11/06 00:15:24;;;;;;;4.67;2.00;;;10.80;1.00;;;;;;5129742;27;20518;-70
2023/11/06 00:17:51;;;;;;;2.33;1.60;;;10.80;1.00;;;;;;5143173;27;20536;-72
2023/11/06 00:20:18;;;;;;;4.03;2.10;;;10.80;1.00;;;;;;5144503;27;20476;-73
2023/11/06 00:22:47;;;;;;;3.17;2.07;;;10.70;1.00;;;;;;5144205;27;20462;-73
2023/11/06 00:25:15;;;;;;;3.00;1.83;;;10.60;1.00;;;;;;5138152;27;20440;-72
2023/11/06 00:27:42;;;;;;;2.43;2.00;;;10.60;1.00;;;;;;5137876;27;20444;-75
2023/11/06 00:30:09;;;;;;;2.07;1.97;;;10.60;1.00;;;;;;5139371;27;21084;-72
2023/11/06 00:32:37;;;;;;;2.40;2.20;;;10.50;1.00;;;;;;5135349;27;20546;-74
2023/11/06 00:35:04;;;;;;;2.77;2.00;;;10.50;1.00;;;;;;5141121;27;21175;-72
2023/11/06 00:37:31;;;;;;;4.90;2.30;;;10.50;1.00;;;;;;5127484;27;21340;-72
2023/11/06 00:39:59;;;;;;;2.70;2.10;;;10.50;1.00;;;;;;5123802;27;20453;-72
2023/11/06 00:42:28;;;;;;;5.03;2.37;;;10.50;1.00;;;;;;5126137;27;20560;-73
2023/11/06 00:44:54;;;;;;;2.37;1.87;;;10.50;1.00;;;;;;5129818;27;20452;-74
2023/11/06 00:47:22;;;;;;;2.47;2.17;;;10.40;1.00;;;;;;5147429;27;20551;-73
2023/11/06 00:49:49;;;;;;;2.80;1.87;;;10.50;1.00;;;;;;5143389;27;20505;-72
2023/11/06 00:52:16;;;;;;;2.83;1.70;;;10.50;1.00;;;;;;5143606;27;20503;-74
2023/11/06 00:54:43;;;;;;;2.90;1.70;;;10.60;1.00;;;;;;5136356;27;20477;-74
2023/11/06 00:57:11;;;;;;;2.97;1.60;;;10.70;1.00;;;;;;5145634;27;20428;-71
2023/11/06 00:59:38;;;;;;;2.90;1.70;;;10.80;1.00;;;;;;5139838;27;21829;-73
2023/11/06 01:02:05;;;;;;;4.53;1.70;;;11.00;1.00;;;;;;5131880;27;20504;-73
2023/11/06 01:04:32;;;;;;;2.47;1.90;;;11.00;1.00;;;;;;5129188;27;21044;-77
2023/11/06 01:06:59;;;;;;;1.90;1.70;;;11.20;1.00;;;;;;5129767;27;20468;-73
2023/11/06 01:09:26;;;;;;;2.50;1.63;;;11.20;1.00;;;;;;5130206;27;21028;-74
2023/11/06 01:11:53;;;;;;;2.10;1.90;;;11.30;1.00;;;;;;5127565;27;20496;-76
2023/11/06 01:14:21;;;;;;;3.00;1.43;;;11.30;1.00;;;;;;5130296;27;20506;-74
2023/11/06 01:16:50;;;;;;;2.77;1.67;;;11.40;1.00;;;;;;5128343;27;20492;-72
2023/11/06 01:19:17;;;;;;;2.70;1.43;;;11.40;1.00;;;;;;5126800;27;20453;-74
2023/11/06 01:21:44;;;;;;;2.20;1.13;;;11.40;1.00;;;;;;5129665;27;20459;-72
2023/11/06 01:24:12;;;;;;;2.40;1.43;;;11.40;1.00;;;;;;5127340;27;22352;-73
2023/11/06 01:26:42;;;;;;;6.43;1.90;;;11.50;1.00;;;;;;5137124;27;20526;-72
2023/11/06 01:29:09;;;;;;;4.43;1.47;;;11.50;1.00;;;;;;5135745;27;20463;-72
2023/11/06 01:31:38;;;;;;;2.73;1.50;;;11.50;1.00;;;;;;5151818;27;20464;-72
2023/11/06 01:34:05;;;;;;;2.63;1.80;;;11.50;1.00;;;;;;5131403;27;20464;-72
2023/11/06 01:36:32;;;;;;;2.33;1.57;;;11.50;1.00;;;;;;5148063;27;21009;-72
2023/11/06 01:38:59;;;;;;;5.67;1.60;;;11.50;1.00;;;;;;5135555;27;20997;-72
2023/11/06 01:41:26;;;;;;;3.67;1.70;;;11.50;1.00;;;;;;5130784;27;20552;-73
2023/11/06 01:43:53;;;;;;;4.07;1.73;;;11.50;1.00;;;;;;5132001;27;20441;-72
2023/11/06 01:46:20;;;;;;;3.37;1.63;;;11.60;1.00;;;;;;5130648;27;20567;-72
2023/11/06 01:48:49;;;;;;;2.60;1.70;;;11.60;1.00;;;;;;5128034;27;20448;-73
2023/11/06 01:51:19;;;;;;;3.73;1.73;;;11.60;1.00;;;;;;5145517;27;20611;-72
2023/11/06 01:53:47;;;;;;;3.97;1.40;;;11.60;1.00;;;;;;5130044;27;20430;-75
2023/11/06 01:56:15;;;;;;;2.50;1.63;;;11.60;1.00;;;;;;5139352;27;20460;-72
2023/11/06 01:58:43;;;;;;;5.50;1.97;;;11.60;1.00;;;;;;5149837;27;20529;-73
2023/11/06 02:01:11;;;;;;;2.40;1.50;;;11.60;1.00;;;;;;5140703;27;21007;-72
2023/11/06 02:03:39;;;;;;;3.10;1.70;;;11.60;1.00;;;;;;5142270;27;20560;-74
2023/11/06 02:06:09;;;;;;;2.20;1.70;;;11.60;1.00;;;;;;5132742;27;20607;-74
2023/11/06 02:08:36;;;;;;;2.40;1.70;;;11.60;1.00;;;;;;5130797;27;21155;-75
2023/11/06 02:11:04;;;;;;;2.97;1.57;;;11.60;1.00;;;;;;5137655;27;20921;-74
2023/11/06 02:13:31;;;;;;;3.67;1.63;;;11.50;1.00;;;;;;5150030;27;20463;-73
2023/11/06 02:15:59;;;;;;;2.40;2.20;;;11.50;1.00;;;;;;5148750;27;20444;-73
2023/11/06 02:18:26;;;;;;;3.50;2.00;;;11.50;1.00;;;;;;5149705;27;20462;-74
2023/11/06 02:20:55;;;;;;;2.07;1.73;;;11.50;1.00;;;;;;5142913;27;20479;-72
2023/11/06 02:23:25;;;;;;;6.23;1.67;;;11.40;1.00;;;;;;5151934;27;20468;-73
2023/11/06 02:25:52;;;;;;;2.20;1.60;;;11.40;1.00;;;;;;5151038;27;21106;-72
2023/11/06 02:28:19;;;;;;;3.73;1.90;;;11.40;1.00;;;;;;5149912;27;20444;-73
2023/11/06 02:30:46;;;;;;;2.63;1.93;;;11.40;1.00;;;;;;5144169;27;20575;-73
2023/11/06 02:33:13;;;;;;;2.30;1.70;;;11.40;1.00;;;;;;5129633;27;20968;-72
2023/11/06 02:35:41;;;;;;;3.53;2.03;;;11.40;1.00;;;;;;5140219;27;20456;-72
2023/11/06 02:38:08;;;;;;;2.90;2.00;;;11.30;1.00;;;;;;5151754;27;20829;-73
2023/11/06 02:40:36;;;;;;;1.90;1.77;;;11.30;1.00;;;;;;5147551;27;21106;-73
2023/11/06 02:43:04;;;;;;;3.33;2.13;;;11.30;1.00;;;;;;5153497;27;20943;-72
2023/11/06 02:45:31;;;;;;;1.67;1.57;;;11.30;1.00;;;;;;5150048;27;20538;-73
2023/11/06 02:47:58;;;;;;;3.20;1.73;;;11.30;1.00;;;;;;5149276;27;20514;-72
2023/11/06 02:50:26;;;;;;;4.63;1.67;;;11.30;1.00;;;;;;5142566;27;20555;-72
2023/11/06 02:52:55;;;;;;;4.50;2.43;;;11.30;1.00;;;;;;5129689;27;20904;-73
2023/11/06 02:55:22;;;;;;;1.90;1.47;;;11.40;1.00;;;;;;5137770;27;20980;-72
2023/11/06 02:57:50;;;;;;;2.47;2.00;;;11.40;1.00;;;;;;5151481;27;20495;-73
2023/11/06 03:00:17;;;;;;;2.00;1.80;;;11.50;1.00;;;;;;5140998;27;20579;-73
2023/11/06 03:02:44;;;;;;;1.73;1.43;;;11.50;1.00;;;;;;5128162;27;20468;-74
2023/11/06 03:05:11;;;;;;;4.60;1.60;;;11.50;1.00;;;;;;5131801;27;21388;-73
2023/11/06 03:07:38;;;;;;;3.20;1.70;;;11.50;1.00;;;;;;5129956;27;21045;-73
2023/11/06 03:10:06;;;;;;;3.00;1.57;;;11.40;1.00;;;;;;5127328;27;20488;-72
2023/11/06 03:12:33;;;;;;;2.60;1.80;;;11.50;1.00;;;;;;5148657;27;20542;-72
2023/11/06 03:15:02;;;;;;;3.50;1.60;;;11.40;1.00;;;;;;5132501;27;20536;-72
2023/11/06 03:17:29;;;;;;;1.90;1.43;;;11.30;1.00;;;;;;5143765;27;20479;-73
2023/11/06 03:19:56;;;;;;;3.23;1.67;;;11.30;1.00;;;;;;5127430;27;20531;-72
2023/11/06 03:22:23;;;;;;;3.00;1.50;;;11.30;1.00;;;;;;5128385;27;20575;-72
2023/11/06 03:24:50;;;;;;;4.30;2.40;;;11.30;1.00;;;;;;5124935;27;20741;-72
2023/11/06 03:27:17;;;;;;;2.43;1.60;;;11.20;1.00;;;;;;5128847;27;20556;-72
2023/11/06 03:29:44;;;;;;;1.90;1.70;;;11.20;1.00;;;;;;5127534;27;21422;-72
2023/11/06 03:32:12;;;;;;;3.43;1.50;;;11.10;1.00;;;;;;5128491;27;20480;-72
2023/11/06 03:34:39;;;;;;;3.97;1.70;;;11.10;1.00;;;;;;5131111;27;20905;-72
2023/11/06 03:37:06;;;;;;;5.80;1.57;;;11.10;1.00;;;;;;5129397;27;20449;-72
2023/11/06 03:39:33;;;;;;;4.97;1.60;;;11.10;1.00;;;;;;5136893;27;20464;-72
2023/11/06 03:41:59;;;;;;;1.67;1.27;;;11.10;1.00;;;;;;5136533;27;20872;-72
2023/11/06 03:44:26;;;;;;;2.70;1.30;;;11.00;1.00;;;;;;5133359;27;21022;-71
2023/11/06 03:46:53;;;;;;;1.50;1.07;;;11.00;1.00;;;;;;5131846;27;20425;-73
2023/11/06 03:49:22;;;;;;;1.53;1.30;;;11.00;1.00;;;;;;5129195;27;20484;-72
2023/11/06 03:51:49;;;;;;;2.37;1.63;;;11.00;1.00;;;;;;5134720;27;20479;-75
2023/11/06 03:54:15;;;;;;;3.63;1.50;;;11.00;1.00;;;;;;5127810;27;20499;-73
2023/11/06 03:56:42;;;;;;;2.80;1.47;;;11.00;1.00;;;;;;5131767;27;21339;-74
2023/11/06 03:59:09;;;;;;;3.27;1.60;;;10.90;1.00;;;;;;5135946;27;20555;-76
2023/11/06 04:01:37;;;;;;;3.43;1.37;;;10.80;1.00;;;;;;5142216;27;21526;-76
2023/11/06 04:04:05;;;;;;;6.13;4.37;;;10.80;1.00;;;;;;5142086;27;20463;-75
2023/11/06 04:06:33;;;;;;;1.20;1.10;;;10.80;1.00;;;;;;5142887;27;20618;-75
2023/11/06 04:09:01;;;;;;;4.50;2.70;;;10.70;1.00;;;;;;5129952;27;20465;-75
2023/11/06 04:11:27;;;;;;;2.70;1.30;;;10.70;1.00;;;;;;5129277;27;20534;-74
2023/11/06 04:13:54;;;;;;;3.53;1.73;;;10.70;1.00;;;;;;5129305;27;20509;-76
2023/11/06 04:16:21;;;;;;;1.60;1.20;;;10.60;1.00;;;;;;5128841;27;20453;-73
2023/11/06 04:18:48;;;;;;;3.23;1.60;;;10.60;1.00;;;;;;5129088;27;20518;-75
2023/11/06 04:21:17;;;;;;;2.50;1.60;;;10.60;1.00;;;;;;5131020;27;20543;-75
2023/11/06 04:23:45;;;;;;;1.50;1.40;;;10.60;1.00;;;;;;5124658;27;20463;-75
2023/11/06 04:26:12;;;;;;;3.60;1.40;;;10.50;1.00;;;;;;5125310;27;20483;-73
2023/11/06 04:28:40;;;;;;;4.50;1.70;;;10.50;1.00;;;;;;5127358;27;20473;-74
2023/11/06 04:31:08;;;;;;;2.57;1.50;;;10.40;1.00;;;;;;5129414;27;20488;-75
2023/11/06 04:33:34;;;;;;;2.03;1.80;;;10.40;1.00;;;;;;5130848;27;20594;-71
2023/11/06 04:36:01;;;;;;;3.93;1.60;;;10.30;1.00;;;;;;5145442;27;20987;-75
2023/11/06 04:38:28;;;;;;;3.27;2.00;;;10.30;1.00;;;;;;5140672;27;20542;-75
2023/11/06 04:40:57;;;;;;;1.83;1.30;;;10.20;1.00;;;;;;5133352;27;20420;-75
2023/11/06 04:43:24;;;;;;;1.90;1.40;;;10.20;1.00;;;;;;5139150;27;21044;-78
2023/11/06 04:45:51;;;;;;;2.37;1.70;;;10.20;1.00;;;;;;5143616;27;21302;-75
2023/11/06 04:48:18;;;;;;;2.20;1.60;;;10.10;1.00;;;;;;5132099;27;20647;-76
2023/11/06 04:50:45;;;;;;;2.17;1.70;;;10.10;1.00;;;;;;5131840;27;20455;-77
2023/11/06 04:53:12;;;;;;;3.20;2.00;;;10.10;1.00;;;;;;5134376;27;20984;-75
2023/11/06 04:55:39;;;;;;;3.80;1.63;;;10.00;1.00;;;;;;5129189;27;20531;-76
2023/11/06 04:58:07;;;;;;;3.77;1.63;;;10.00;1.00;;;;;;5131898;27;20473;-75
2023/11/06 05:00:34;;;;;;;3.47;2.00;;;9.90;1.00;;;;;;5130043;27;20449;-69
2023/11/06 05:03:01;;;;;;;2.80;1.37;;;9.90;1.00;;;;;;5144659;27;20444;-73
2023/11/06 05:05:28;;;;;;;4.13;1.50;;;9.90;1.00;;;;;;5125606;27;20560;-69
2023/11/06 05:07:55;;;;;;;2.63;1.70;;;10.00;1.00;;;;;;5139949;27;20467;-69
2023/11/06 05:10:22;;;;;;;2.90;1.50;;;10.00;1.00;;;;;;5138018;27;20462;-72
2023/11/06 05:12:49;;;;;;;3.10;1.60;;;10.00;1.00;;;;;;5128418;27;20564;-70
2023/11/06 05:15:19;;;;;;;2.63;1.70;;;10.00;1.00;;;;;;5134495;27;20444;-68
2023/11/06 05:17:46;;;;;;;5.20;4.70;;;10.10;1.00;;;;;;5135863;27;20469;-70
2023/11/06 05:20:14;;;;;;;2.10;1.57;;;10.10;1.00;;;;;;5127784;27;20539;-71
2023/11/06 05:22:41;;;;;;;4.23;1.60;;;10.20;1.00;;;;;;5133981;27;20880;-69
2023/11/06 05:25:09;;;;;;;2.10;1.40;;;10.30;1.00;;;;;;5126649;27;20546;-72
2023/11/06 05:27:36;;;;;;;3.47;2.00;;;10.40;1.00;;;;;;5127663;27;20480;-69
2023/11/06 05:30:04;;;;;;;3.87;1.90;;;10.40;1.00;;;;;;5133997;27;20524;-69
2023/11/06 05:32:32;;;;;;;3.00;1.47;;;10.40;1.00;;;;;;5138300;27;20532;-73
2023/11/06 05:35:00;;;;;;;6.43;1.67;;;10.50;1.00;;;;;;5143235;27;20531;-69
2023/11/06 05:37:27;;;;;;;2.00;1.80;;;10.50;1.00;;;;;;5128041;27;20472;-69
2023/11/06 05:39:54;;;;;;;3.67;1.40;;;10.50;1.00;;;;;;5138425;27;20450;-68
2023/11/06 05:42:21;;;;;;;3.00;1.80;;;10.50;1.00;;;;;;5148436;27;20476;-70
2023/11/06 05:44:48;;;;;;;3.43;1.70;;;10.50;1.00;;;;;;5143710;27;20505;-71
2023/11/06 05:47:15;;;;;;;2.70;1.77;;;10.40;1.00;;;;;;5149065;27;20487;-69
2023/11/06 05:49:43;;;;;;;3.00;1.30;;;10.40;1.00;;;;;;5148627;27;20546;-72
2023/11/06 05:52:13;;;;;;;2.63;1.57;;;10.40;1.00;;;;;;5141475;27;20480;-70
2023/11/06 05:54:40;;;;;;;1.90;1.50;;;10.40;1.00;;;;;;5135591;27;20506;-70
2023/11/06 05:57:07;;;;;;;3.03;1.17;;;10.40;1.00;;;;;;5143747;27;20522;-69
2023/11/06 05:59:34;;;;;;;3.00;1.83;;;10.50;1.00;;;;;;5125802;27;21026;-69
2023/11/06 06:02:03;;;;;;;1.57;1.40;;;10.60;1.00;;;;;;5142284;27;21186;-70
2023/11/06 06:04:31;;;;;;;5.40;1.60;;;10.60;1.00;;;;;;5130943;27;21258;-70
2023/11/06 06:07:00;;;;;;;2.20;1.70;;;10.70;1.00;;;;;;5138418;27;20876;-69
2023/11/06 06:09:27;;;;;;;2.40;1.60;;;10.70;1.00;;;;;;5131647;27;20432;-70
2023/11/06 06:11:54;;;;;;;3.87;2.43;;;10.70;1.00;;;;;;5144463;27;20593;-78
2023/11/06 06:14:21;;;;;;;2.90;1.30;;;10.70;1.00;;;;;;5155075;27;20463;-78
2023/11/06 06:16:49;;;;;;;2.40;1.40;;;10.80;1.00;;;;;;5155617;27;20423;-76
2023/11/06 06:19:17;;;;;;;3.30;1.60;;;10.80;1.00;;;;;;5136399;27;20456;-76
2023/11/06 06:21:45;;;;;;;5.13;1.93;;;10.80;1.00;;;;;;5145313;27;20462;-79
2023/11/06 06:24:15;;;;;;;2.60;1.47;;;10.80;1.00;;;;;;5144368;27;20448;-76
2023/11/06 06:26:42;;;;;;;3.90;1.70;;;10.80;1.00;;;;;;5147382;27;20472;-78
2023/11/06 06:29:09;;;;;;;3.40;1.50;;;10.80;1.00;;;;;;5130678;27;20530;-76
2023/11/06 06:31:36;;;;;;;2.20;1.30;;;10.90;1.00;;;;;;5142274;27;20441;-79
2023/11/06 06:34:04;;;;;;;4.40;1.73;;;10.90;1.00;;;;;;5152397;27;20418;-79
2023/11/06 06:36:32;;;;;;;2.60;1.50;;;11.00;1.00;;;;;;5137024;27;20467;-75
2023/11/06 06:38:59;;;;;;;3.03;1.47;;;11.00;1.00;;;;;;5146430;27;21314;-77
2023/11/06 06:41:28;;;;;;;2.67;1.50;;;11.10;1.00;;;;;;5132812;27;20457;-79
2023/11/06 06:43:55;;;;;;;2.60;1.40;;;11.20;1.00;;;;;;5141148;27;20516;-81
2023/11/06 06:46:22;;;;;;;2.77;1.20;;;11.20;1.00;;;;;;5153045;27;20463;-78
2023/11/06 06:48:50;;;;;;;2.50;1.40;;;11.20;1.00;;;;;;5155068;27;20483;-80
2023/11/06 06:51:17;;;;;;;4.83;1.67;;;11.30;1.00;;;;;;5140107;27;20519;-75
2023/11/06 06:53:46;;;;;;;5.30;2.00;;;11.30;1.00;;;;;;5141178;27;20421;-79
2023/11/06 06:56:13;;;;;;;2.10;1.00;;;11.40;1.00;;;;;;5155620;27;20483;-79
2023/11/06 06:58:42;;;;;;;2.60;1.57;;;11.40;1.00;;;;;;5136363;27;20466;-81
2023/11/06 07:01:09;;;;;;;2.90;1.27;;;11.40;1.00;;;;;;5135592;27;21382;-80
2023/11/06 07:03:37;;;;;;;2.70;1.10;;;11.40;1.00;;;;;;5150059;27;20452;-76
2023/11/06 07:06:08;;;;;;;1.47;1.10;;;11.40;1.00;;;;;;5151670;27;21230;-79
2023/11/06 07:08:35;;;;;;;2.63;1.57;;;11.40;1.00;;;;;;5137584;27;20448;-78
2023/11/06 07:11:02;;;;;;;2.57;1.40;;;11.40;1.00;;;;;;5150459;27;20483;-79
2023/11/06 07:13:30;;;;;;;4.90;3.90;;;11.50;1.00;;;;;;5137916;27;20457;-80
2023/11/06 07:15:58;;;;;;;4.40;1.60;;;11.60;1.00;;;;;;5135485;27;21224;-78
2023/11/06 07:18:25;;;;;;;3.90;1.60;;;11.60;1.00;;;;;;5133260;27;20459;-74
2023/11/06 07:20:52;;;;;;;3.20;1.50;;;11.60;1.00;;;;;;5139669;27;20484;-74
2023/11/06 07:23:19;;;;;;;2.60;0.83;;;11.70;1.00;;;;;;5148954;27;20820;-73
2023/11/06 07:25:46;;;;;;;3.63;1.47;;;11.70;1.00;;;;;;5143915;27;20484;-72
2023/11/06 07:28:14;;;;;;;2.07;0.90;;;11.70;1.00;;;;;;5145570;27;20649;-72
2023/11/06 07:30:41;;;;;;;3.93;1.37;;;11.70;1.00;;;;;;5148155;27;20449;-74
2023/11/06 07:33:09;;;;;;;2.47;1.20;;;11.70;1.00;;;;;;5152062;27;20448;-74
2023/11/06 07:35:36;;;;;;;4.30;1.60;;;11.80;1.00;;;;;;5148697;27;20468;-72
2023/11/06 07:38:03;;;;;;;2.50;1.30;;;11.80;1.00;;;;;;5152396;27;20483;-72
2023/11/06 07:40:30;;;;;;;1.90;1.30;;;11.80;1.00;;;;;;5148008;27;20461;-74
2023/11/06 07:42:58;;;;;;;3.00;1.20;;;11.80;1.00;;;;;;5135557;27;20451;-73
2023/11/06 07:45:25;;;;;;;3.10;1.40;;;11.90;1.00;;;;;;5138372;27;20480;-74
2023/11/06 07:47:55;;;;;;;2.60;1.70;;;11.90;1.00;;;;;;5129508;27;20454;-76
2023/11/06 07:50:23;;;;;;;3.20;1.50;;;12.00;1.00;;;;;;5132271;27;20568;-76
2023/11/06 07:52:50;;;;;;;3.00;1.30;;;11.90;1.00;;;;;;5129867;27;20863;-74
2023/11/06 07:55:17;;;;;;;3.60;1.40;;;11.90;1.00;;;;;;5133731;27;20450;-75
2023/11/06 07:57:45;;;;;;;2.17;1.53;;;12.00;1.00;;;;;;5123263;27;20528;-75
2023/11/06 08:00:13;;;;;;;3.50;1.50;;;12.00;1.00;;;;;;5133880;27;20446;-75
2023/11/06 08:02:41;;;;;;;1.87;1.30;;;12.10;1.00;;;;;;5132024;27;20475;-75
2023/11/06 08:05:09;;;;;;;1.80;1.20;;;12.20;1.00;;;;;;5132264;27;20565;-76
2023/11/06 08:07:38;;;;;;;1.33;1.23;;;12.20;1.00;;;;;;5129843;27;20551;-75
2023/11/06 08:10:07;;;;;;;2.90;1.20;;;12.40;1.00;;;;;;5134709;27;20507;-74
2023/11/06 08:12:34;;;;;;;2.50;1.80;;;12.80;1.00;;;;;;5132128;27;20466;-75
2023/11/06 08:15:02;;;;;;;2.70;1.33;;;13.10;1.00;;;;;;5128826;27;20555;-77
2023/11/06 08:17:29;;;;;;;2.47;0.97;;;12.90;1.00;;;;;;5129277;27;20438;-74
2023/11/06 08:19:57;;;;;;;2.47;1.37;;;12.80;1.00;;;;;;5133273;27;20447;-75
2023/11/06 08:22:24;;;;;;;2.23;1.30;;;12.70;1.00;;;;;;5131567;27;20451;-75
2023/11/06 08:24:52;;;;;;;1.90;1.10;;;12.60;1.00;;;;;;5132755;27;20501;-75
2023/11/06 08:27:19;;;;;;;2.40;1.37;;;12.60;1.00;;;;;;5131219;27;20645;-74
2023/11/06 08:29:46;;;;;;;2.13;1.10;;;12.60;1.00;;;;;;5130598;27;20447;-73
2023/11/06 08:32:13;;;;;;;3.63;1.20;;;12.60;1.00;;;;;;5128471;27;20909;-78
2023/11/06 08:34:42;;;;;;;4.10;1.13;;;12.70;1.00;;;;;;5123711;27;20450;-78
2023/11/06 08:37:09;;;;;;;1.60;1.50;;;12.60;1.00;;;;;;5124451;27;21177;-76
2023/11/06 08:39:38;;;;;;;2.60;1.40;;;12.70;1.00;;;;;;5127002;27;20854;-77
2023/11/06 08:42:07;;;;;;;2.13;1.00;;;12.80;1.00;;;;;;5138846;27;20556;-80
2023/11/06 08:44:34;;;;;;;2.70;1.07;;;12.90;1.00;;;;;;5134407;27;20990;-79
2023/11/06 08:47:07;;;;;;;1.80;1.00;;;13.10;1.00;;;;;;5138031;27;21030;-81
2023/11/06 08:49:34;;;;;;;2.30;1.30;;;13.20;1.00;;;;;;5135626;27;20547;-77
2023/11/06 08:52:02;;;;;;;1.97;1.20;;;13.30;1.00;;;;;;5140817;27;20968;-80
2023/11/06 08:54:30;;;;;;;2.80;1.37;;;13.40;1.00;;;;;;5137169;27;20509;-78
2023/11/06 08:56:57;;;;;;;2.40;1.10;;;13.40;1.00;;;;;;5139272;27;20454;-80
2023/11/06 08:59:26;;;;;;;2.10;1.27;;;13.50;1.00;;;;;;5135336;27;20550;-78
2023/11/06 09:01:53;;;;;;;3.17;1.00;;;13.50;1.00;;;;;;5122833;27;21245;-80
2023/11/06 09:04:20;;;;;;;2.80;1.23;;;13.40;1.00;;;;;;5143814;27;20524;-80
2023/11/06 09:06:47;;;;;;;1.23;0.97;;;13.50;1.00;;;;;;5154275;27;20972;-79
2023/11/06 09:09:15;;;;;;;4.80;1.60;;;13.40;1.00;;;;;;5155394;27;20899;-79
2023/11/06 09:11:43;;;;;;;2.97;2.20;;;13.50;1.00;;;;;;5155062;27;20462;-77
2023/11/06 09:14:10;;;;;;;2.70;1.20;;;13.50;1.00;;;;;;5153260;27;21455;-79
2023/11/06 09:16:40;;;;;;;3.20;1.40;;;13.50;1.00;;;;;;5149849;27;21571;-78
2023/11/06 09:19:07;;;;;;;3.43;1.87;;;13.30;1.00;;;;;;5150194;27;20554;-79
2023/11/06 09:21:34;;;;;;;2.30;1.50;;;13.40;1.00;;;;;;5157676;27;20589;-82
2023/11/06 09:24:02;;;;;;;2.03;1.20;;;13.40;1.00;;;;;;5153498;27;20435;-74
2023/11/06 09:26:29;;;;;;;1.93;1.73;;;13.40;1.00;;;;;;5137692;27;20489;-76
2023/11/06 09:28:57;;;;;;;2.97;2.10;;;13.40;1.00;;;;;;5135612;27;20537;-78
2023/11/06 09:31:23;;;;;;;3.23;2.30;;;13.50;1.00;;;;;;5142438;27;20516;-82
2023/11/06 09:33:52;;;;;;;2.27;1.80;;;13.50;1.00;;;;;;5124461;27;20438;-78
2023/11/06 09:36:21;;;;;;;3.30;1.90;;;13.40;1.00;;;;;;5134065;27;20459;-81
2023/11/06 09:38:48;;;;;;;2.93;1.47;;;13.40;1.00;;;;;;5146113;27;21408;-81
2023/11/06 09:41:15;;;;;;;2.37;1.40;;;13.30;1.00;;;;;;5152520;27;20462;-71
2023/11/06 09:43:43;;;;;;;1.47;1.37;;;13.30;1.00;;;;;;5149171;27;20441;-70
2023/11/06 09:46:11;;;;;;;3.17;1.27;;;13.40;1.00;;;;;;5144357;27;20952;-70
2023/11/06 09:48:39;;;;;;;2.97;1.87;;;13.50;1.00;;;;;;5123130;27;20588;-72
2023/11/06 09:51:11;;;;;;;2.23;1.57;;;13.50;1.00;;;;;;5125464;27;20548;-70
2023/11/06 09:53:39;;;;;;;1.87;1.60;;;13.50;1.00;;;;;;5132908;27;20496;-70
2023/11/06 09:56:09;;;;;;;3.00;2.43;;;13.40;1.00;;;;;;5132871;27;20450;-71
2023/11/06 09:58:38;;;;;;;4.30;1.90;;;13.40;1.00;;;;;;5131311;27;20462;-72
2023/11/06 10:01:07;;;;;;;2.53;2.33;;;13.50;1.00;;;;;;5134412;27;20543;-72
2023/11/06 10:03:36;;;;;;;8.37;2.13;;;13.60;1.00;;;;;;5143251;27;20556;-69
2023/11/06 10:06:03;;;;;;;3.63;1.67;;;13.60;1.00;;;;;;5136361;27;20502;-70
2023/11/06 10:08:34;;;;;;;2.60;1.50;;;13.70;1.00;;;;;;5125583;27;20467;-72
2023/11/06 10:11:03;;;;;;;3.50;1.87;;;13.80;1.00;;;;;;5145298;27;20516;-74
2023/11/06 10:13:30;;;;;;;2.90;1.83;;;13.90;1.00;;;;;;5153254;27;20482;-71
2023/11/06 10:16:17;;;;;;;3.10;1.70;;;13.90;1.00;;;;;;5140072;27;20474;-69
2023/11/06 10:18:46;;;;;;;2.80;1.67;;;14.00;1.00;;;;;;5127866;27;21002;-72
2023/11/06 10:21:28;;;;;;;3.10;1.47;;;14.20;1.00;;;;;;5136995;27;20462;-72
2023/11/06 10:24:00;;;;;;;2.60;1.40;;;14.20;1.00;;;;;;5132786;27;20469;-75
2023/11/06 10:26:31;;;;;;;2.77;1.40;;;14.20;1.00;;;;;;5135820;27;20489;-74
2023/11/06 10:29:14;;;;;;;1.87;1.57;;;14.10;1.00;;;;;;5138085;27;20466;-69
2023/11/06 10:31:43;;;;;;;2.60;1.90;;;14.10;1.00;;;;;;5128307;27;20520;-73
2023/11/06 10:34:26;;;;;;;2.27;1.67;;;14.30;1.00;;;;;;5137868;27;20464;-71
2023/11/06 10:37:10;;;;;;;2.60;1.70;;;14.50;1.00;;;;;;5131236;27;20796;-70
2023/11/06 10:39:43;;;;;;;6.57;3.73;;;14.70;1.00;;;;;;5138642;27;20449;-70
2023/11/06 10:42:10;;;;;;;3.50;1.30;;;14.90;1.00;;;;;;5145570;27;20440;-70
2023/11/06 10:44:38;;;;;;;1.70;1.53;;;15.00;1.00;;;;;;5151063;27;20467;-70
2023/11/06 10:47:07;;;;;;;3.13;1.50;;;15.10;1.00;;;;;;5149650;27;20439;-70
2023/11/06 10:49:36;;;;;;;3.60;1.43;;;15.10;1.00;;;;;;5150694;27;21470;-75
2023/11/06 10:52:07;;;;;;;2.50;1.60;;;15.10;1.00;;;;;;5152362;27;20526;-75
2023/11/06 10:54:38;;;;;;;3.90;1.50;;;15.00;1.00;;;;;;5128049;27;21427;-72
2023/11/06 10:57:08;;;;;;;2.80;1.60;;;15.00;1.00;;;;;;5134725;27;20467;-74
2023/11/06 10:59:37;;;;;;;5.20;1.83;;;15.00;1.00;;;;;;5137959;27;20555;-70
2023/11/06 11:02:05;;;;;;;2.70;1.60;;;14.90;1.00;;;;;;5145399;27;20473;-73
2023/11/06 11:04:35;;;;;;;2.53;1.40;;;14.80;1.00;;;;;;5133996;27;20445;-74
2023/11/06 11:07:04;;;;;;;4.10;1.60;;;14.60;1.00;;;;;;5132591;27;20960;-75
2023/11/06 11:09:31;;;;;;;1.60;1.37;;;14.50;1.00;;;;;;5139921;27;20456;-72
2023/11/06 11:12:01;;;;;;;5.80;1.70;;;14.60;1.00;;;;;;5150605;27;21214;-73
2023/11/06 11:14:33;;;;;;;3.53;1.60;;;14.90;1.00;;;;;;5148609;27;20463;-74
2023/11/06 11:17:09;;;;;;;3.00;1.67;;;15.40;1.00;;;;;;5149105;27;20432;-73
2023/11/06 11:19:37;;;;;;;4.90;2.00;;;15.30;1.00;;;;;;5139179;27;21002;-73
2023/11/06 11:22:08;;;;;;;4.30;1.70;;;14.90;1.00;;;;;;5125263;27;20583;-72
2023/11/06 11:24:53;;;;;;;4.27;2.37;;;14.90;1.00;;;;;;5126966;27;20540;-73
2023/11/06 11:27:22;;;;;;;3.00;1.67;;;14.90;1.00;;;;;;5128283;27;20573;-73
2023/11/06 11:30:12;;;;;;;4.10;1.80;;;15.00;1.00;;;;;;5130790;27;20911;-74
2023/11/06 11:32:51;;;;;;;5.03;1.70;;;15.50;1.00;;;;;;5124828;27;20468;-73
2023/11/06 11:35:58;;;;;;;3.50;1.60;;;15.80;1.00;;;;;;5129347;27;20461;-74
2023/11/06 11:38:32;;;;;;;4.10;1.90;;;15.80;1.00;;;;;;5146769;27;20453;-74
2023/11/06 11:41:08;;;;;;;2.10;1.37;;;15.70;1.00;;;;;;5132410;27;21158;-73
2023/11/06 11:43:46;;;;;;;4.03;1.87;;;15.60;1.00;;;;;;5139726;27;20467;-71
2023/11/06 11:46:53;;;;;;;4.40;1.50;;;15.90;1.00;;;;;;5145685;27;20471;-76
2023/11/06 11:49:38;;;;;;;2.87;1.40;;;16.20;1.00;;;;;;5147222;27;20455;-72
2023/11/06 11:52:05;;;;;;;3.50;1.30;;;15.80;1.00;;;;;;5142854;27;20484;-72
2023/11/06 11:54:33;;;;;;;5.90;1.50;;;15.40;1.00;;;;;;5146621;27;20535;-73
2023/11/06 11:57:02;;;;;;;4.20;1.37;;;16.30;1.00;;;;;;5136844;27;20522;-72
2023/11/06 11:59:30;;;;;;;2.70;1.07;;;17.40;1.00;;;;;;5125499;27;20457;-72
2023/11/06 12:01:59;;;;;;;3.20;1.50;;;18.10;1.00;;;;;;5127806;27;20450;-77
2023/11/06 12:04:27;;;;;;;4.67;1.10;;;18.70;1.00;;;;;;5124818;27;20541;-75
2023/11/06 12:07:02;;;;;;;4.43;1.80;;;19.40;1.00;;;;;;5127084;27;20564;-74
2023/11/06 12:09:43;;;;;;;1.77;1.60;;;19.00;1.00;;;;;;5128000;27;20451;-75
2023/11/06 12:12:10;;;;;;;3.80;1.70;;;18.90;1.00;;;;;;5129139;27;20445;-75
2023/11/06 12:14:38;;;;;;;4.00;1.43;;;17.80;1.00;;;;;;5143844;27;20452;-77
2023/11/06 12:17:06;;;;;;;2.80;1.20;;;16.80;1.00;;;;;;5128432;27;21091;-75
2023/11/06 12:19:40;;;;;;;4.43;1.93;;;16.30;1.00;;;;;;5119325;27;20506;-73
2023/11/06 12:22:06;;;;;;;6.10;1.30;;;16.10;1.00;;;;;;5128206;27;20469;-76
2023/11/06 12:24:48;;;;;;;2.17;1.30;;;15.80;1.00;;;;;;5128122;27;20448;-72
2023/11/06 12:27:15;;;;;;;4.37;1.70;;;15.50;1.00;;;;;;5127219;27;20482;-74
2023/11/06 12:29:42;;;;;;;3.40;1.60;;;15.10;1.00;;;;;;5126008;27;20547;-73
2023/11/06 12:32:21;;;;;;;3.73;1.20;;;15.00;1.00;;;;;;5131597;27;20433;-76
2023/11/06 12:34:48;;;;;;;3.63;1.30;;;14.80;1.00;;;;;;5129658;27;20532;-76
2023/11/06 12:37:16;;;;;;;4.20;1.10;;;14.80;1.00;;;;;;5130542;27;20861;-77
2023/11/06 12:39:44;;;;;;;3.10;1.80;;;14.60;1.00;;;;;;5128610;27;20440;-77
2023/11/06 12:42:11;;;;;;;2.83;1.43;;;14.60;1.00;;;;;;5131062;27;20509;-74
2023/11/06 12:44:40;;;;;;;2.33;1.60;;;14.50;1.00;;;;;;5129071;27;20408;-76
2023/11/06 12:47:09;;;;;;;4.50;1.50;;;14.40;1.00;;;;;;5134291;27;20459;-76
2023/11/06 12:49:48;;;;;;;5.60;1.80;;;14.40;1.00;;;;;;5149050;27;20581;-76
2023/11/06 12:52:21;;;;;;;2.10;1.50;;;14.40;1.00;;;;;;5150920;27;20504;-75
2023/11/06 12:54:49;;;;;;;2.30;1.57;;;14.40;1.00;;;;;;5147763;27;20447;-77
2023/11/06 12:57:18;;;;;;;2.90;1.80;;;14.40;1.00;;;;;;5148646;27;20550;-76
2023/11/06 12:59:46;;;;;;;3.47;1.80;;;14.50;1.00;;;;;;5146036;27;20470;-76
2023/11/06 13:02:13;;;;;;;2.60;1.50;;;14.40;1.00;;;;;;5149580;27;20509;-75
2023/11/06 13:04:42;;;;;;;3.00;1.50;;;14.50;1.00;;;;;;5151160;27;20472;-75